sensor_id;sensor_type;location;lat;lon;timestamp;P1;durP1;ratioP1;P2;durP2;ratioP2
23072;SDS011;67971;51.046;3.732;2023-07-31T00:00:05;26.23;;;8.45;;
23072;SDS011;67971;51.046;3.732;2023-07-31T00:02:33;23.55;;;8.68;;
23072;SDS011;67971;51.046;3.732;2023-07-31T00:04:59;24.00;;;8.07;;
23072;SDS011;67971;51.046;3.732;2023-07-31T00:07:26;25.13;;;7.95;;
23072;SDS011;67971;51.046;3.732;2023-07-31T00:09:52;22.90;;;7.57;;
23072;SDS011;67971;51.046;3.732;2023-07-31T00:12:18;22.60;;;8.52;;
23072;SDS011;67971;51.046;3.732;2023-07-31T00:14:44;25.20;;;8.88;;
23072;SDS011;67971;51.046;3.732;2023-07-31T00:17:10;19.83;;;8.15;;
23072;SDS011;67971;51.046;3.732;2023-07-31T00:19:36;26.42;;;8.00;;
23072;SDS011;67971;51.046;3.732;2023-07-31T00:22:02;23.70;;;8.48;;
23072;SDS011;67971;51.046;3.732;2023-07-31T00:24:28;21.02;;;7.90;;
23072;SDS011;67971;51.046;3.732;2023-07-31T00:26:53;25.35;;;7.93;;
23072;SDS011;67971;51.046;3.732;2023-07-31T00:29:19;24.45;;;8.32;;
23072;SDS011;67971;51.046;3.732;2023-07-31T00:31:45;30.25;;;9.02;;
23072;SDS011;67971;51.046;3.732;2023-07-31T00:34:10;27.58;;;8.45;;
23072;SDS011;67971;51.046;3.732;2023-07-31T00:36:36;26.05;;;9.93;;
23072;SDS011;67971;51.046;3.732;2023-07-31T00:39:02;28.25;;;9.13;;
23072;SDS011;67971;51.046;3.732;2023-07-31T00:41:27;28.98;;;9.30;;
23072;SDS011;67971;51.046;3.732;2023-07-31T00:43:53;24.98;;;7.50;;
23072;SDS011;67971;51.046;3.732;2023-07-31T00:46:18;25.55;;;8.45;;
23072;SDS011;67971;51.046;3.732;2023-07-31T00:48:45;27.00;;;8.15;;
23072;SDS011;67971;51.046;3.732;2023-07-31T00:51:11;20.45;;;7.55;;
23072;SDS011;67971;51.046;3.732;2023-07-31T00:53:36;21.55;;;7.28;;
23072;SDS011;67971;51.046;3.732;2023-07-31T00:56:03;22.02;;;7.63;;
23072;SDS011;67971;51.046;3.732;2023-07-31T00:58:29;25.67;;;7.47;;
23072;SDS011;67971;51.046;3.732;2023-07-31T01:00:55;21.25;;;8.10;;
23072;SDS011;67971;51.046;3.732;2023-07-31T01:03:20;25.90;;;9.48;;
23072;SDS011;67971;51.046;3.732;2023-07-31T01:05:54;25.63;;;7.70;;
23072;SDS011;67971;51.046;3.732;2023-07-31T01:10:49;25.08;;;8.98;;
23072;SDS011;67971;51.046;3.732;2023-07-31T01:13:19;25.88;;;8.63;;
23072;SDS011;67971;51.046;3.732;2023-07-31T01:15:46;25.02;;;8.38;;
23072;SDS011;67971;51.046;3.732;2023-07-31T01:18:11;23.38;;;7.72;;
23072;SDS011;67971;51.046;3.732;2023-07-31T01:20:37;28.55;;;7.18;;
23072;SDS011;67971;51.046;3.732;2023-07-31T01:28:35;22.00;;;7.93;;
23072;SDS011;67971;51.046;3.732;2023-07-31T01:31:17;24.67;;;7.85;;
23072;SDS011;67971;51.046;3.732;2023-07-31T01:33:45;23.77;;;7.97;;
23072;SDS011;67971;51.046;3.732;2023-07-31T01:36:11;25.17;;;8.18;;
23072;SDS011;67971;51.046;3.732;2023-07-31T01:38:37;21.02;;;8.18;;
23072;SDS011;67971;51.046;3.732;2023-07-31T01:41:03;29.33;;;8.68;;
23072;SDS011;67971;51.046;3.732;2023-07-31T01:43:28;25.58;;;7.78;;
23072;SDS011;67971;51.046;3.732;2023-07-31T01:45:54;30.25;;;9.35;;
23072;SDS011;67971;51.046;3.732;2023-07-31T01:48:20;17.45;;;7.25;;
23072;SDS011;67971;51.046;3.732;2023-07-31T01:50:45;23.45;;;7.20;;
23072;SDS011;67971;51.046;3.732;2023-07-31T01:53:11;27.17;;;7.57;;
23072;SDS011;67971;51.046;3.732;2023-07-31T01:55:38;24.90;;;7.53;;
23072;SDS011;67971;51.046;3.732;2023-07-31T01:58:03;27.38;;;8.18;;
23072;SDS011;67971;51.046;3.732;2023-07-31T02:00:29;20.02;;;6.28;;
23072;SDS011;67971;51.046;3.732;2023-07-31T02:02:55;27.15;;;6.95;;
23072;SDS011;67971;51.046;3.732;2023-07-31T02:05:20;18.55;;;6.70;;
23072;SDS011;67971;51.046;3.732;2023-07-31T02:07:46;20.98;;;7.15;;
23072;SDS011;67971;51.046;3.732;2023-07-31T02:10:11;18.10;;;7.00;;
23072;SDS011;67971;51.046;3.732;2023-07-31T02:12:37;21.65;;;6.95;;
23072;SDS011;67971;51.046;3.732;2023-07-31T02:15:03;19.75;;;7.13;;
23072;SDS011;67971;51.046;3.732;2023-07-31T02:17:29;22.00;;;7.38;;
23072;SDS011;67971;51.046;3.732;2023-07-31T02:19:54;19.48;;;6.97;;
23072;SDS011;67971;51.046;3.732;2023-07-31T02:22:20;18.90;;;6.18;;
23072;SDS011;67971;51.046;3.732;2023-07-31T02:24:46;20.63;;;6.03;;
23072;SDS011;67971;51.046;3.732;2023-07-31T02:27:11;21.30;;;6.30;;
23072;SDS011;67971;51.046;3.732;2023-07-31T02:29:37;21.98;;;7.35;;
23072;SDS011;67971;51.046;3.732;2023-07-31T02:32:03;24.45;;;7.15;;
23072;SDS011;67971;51.046;3.732;2023-07-31T02:34:28;19.77;;;6.70;;
23072;SDS011;67971;51.046;3.732;2023-07-31T02:36:54;24.92;;;7.47;;
23072;SDS011;67971;51.046;3.732;2023-07-31T02:39:20;16.48;;;6.80;;
23072;SDS011;67971;51.046;3.732;2023-07-31T02:41:46;20.05;;;6.07;;
23072;SDS011;67971;51.046;3.732;2023-07-31T02:44:12;24.08;;;6.45;;
23072;SDS011;67971;51.046;3.732;2023-07-31T02:46:39;19.90;;;7.00;;
23072;SDS011;67971;51.046;3.732;2023-07-31T02:49:05;21.13;;;6.50;;
23072;SDS011;67971;51.046;3.732;2023-07-31T02:51:30;19.05;;;6.50;;
23072;SDS011;67971;51.046;3.732;2023-07-31T02:53:56;19.17;;;6.43;;
23072;SDS011;67971;51.046;3.732;2023-07-31T02:56:22;21.60;;;6.72;;
23072;SDS011;67971;51.046;3.732;2023-07-31T02:58:47;24.10;;;7.20;;
23072;SDS011;67971;51.046;3.732;2023-07-31T03:01:13;20.02;;;6.28;;
23072;SDS011;67971;51.046;3.732;2023-07-31T03:03:40;27.40;;;7.15;;
23072;SDS011;67971;51.046;3.732;2023-07-31T03:06:06;15.00;;;6.40;;
23072;SDS011;67971;51.046;3.732;2023-07-31T03:08:32;16.35;;;5.65;;
23072;SDS011;67971;51.046;3.732;2023-07-31T03:10:58;23.90;;;6.57;;
23072;SDS011;67971;51.046;3.732;2023-07-31T03:13:23;23.05;;;6.55;;
23072;SDS011;67971;51.046;3.732;2023-07-31T03:15:49;24.83;;;7.40;;
23072;SDS011;67971;51.046;3.732;2023-07-31T03:18:15;22.00;;;7.20;;
23072;SDS011;67971;51.046;3.732;2023-07-31T03:20:44;28.70;;;7.55;;
23072;SDS011;67971;51.046;3.732;2023-07-31T03:23:09;22.80;;;7.38;;
23072;SDS011;67971;51.046;3.732;2023-07-31T03:25:35;23.90;;;8.38;;
23072;SDS011;67971;51.046;3.732;2023-07-31T03:28:01;25.75;;;8.38;;
23072;SDS011;67971;51.046;3.732;2023-07-31T03:30:26;22.88;;;7.53;;
23072;SDS011;67971;51.046;3.732;2023-07-31T03:32:52;24.95;;;8.82;;
23072;SDS011;67971;51.046;3.732;2023-07-31T03:35:17;24.52;;;7.47;;
23072;SDS011;67971;51.046;3.732;2023-07-31T03:37:43;27.13;;;8.40;;
23072;SDS011;67971;51.046;3.732;2023-07-31T03:40:09;27.27;;;8.38;;
23072;SDS011;67971;51.046;3.732;2023-07-31T03:42:35;25.20;;;7.82;;
23072;SDS011;67971;51.046;3.732;2023-07-31T03:45:00;22.33;;;8.65;;
23072;SDS011;67971;51.046;3.732;2023-07-31T03:47:26;18.73;;;7.68;;
23072;SDS011;67971;51.046;3.732;2023-07-31T03:49:52;27.45;;;9.15;;
23072;SDS011;67971;51.046;3.732;2023-07-31T03:52:17;25.70;;;8.48;;
23072;SDS011;67971;51.046;3.732;2023-07-31T03:54:43;22.52;;;7.78;;
23072;SDS011;67971;51.046;3.732;2023-07-31T03:57:09;24.60;;;8.90;;
23072;SDS011;67971;51.046;3.732;2023-07-31T03:59:36;25.48;;;9.65;;
23072;SDS011;67971;51.046;3.732;2023-07-31T04:02:04;30.55;;;10.10;;
23072;SDS011;67971;51.046;3.732;2023-07-31T04:04:29;25.15;;;9.50;;
23072;SDS011;67971;51.046;3.732;2023-07-31T04:06:55;26.13;;;8.88;;
23072;SDS011;67971;51.046;3.732;2023-07-31T04:09:20;23.10;;;9.10;;
23072;SDS011;67971;51.046;3.732;2023-07-31T04:11:46;28.10;;;9.63;;
23072;SDS011;67971;51.046;3.732;2023-07-31T04:14:12;28.67;;;9.70;;
23072;SDS011;67971;51.046;3.732;2023-07-31T04:16:37;26.15;;;9.70;;
23072;SDS011;67971;51.046;3.732;2023-07-31T04:19:03;24.70;;;8.77;;
23072;SDS011;67971;51.046;3.732;2023-07-31T04:21:29;24.48;;;9.18;;
23072;SDS011;67971;51.046;3.732;2023-07-31T04:23:54;28.43;;;9.73;;
23072;SDS011;67971;51.046;3.732;2023-07-31T04:26:21;20.07;;;8.70;;
23072;SDS011;67971;51.046;3.732;2023-07-31T04:28:47;25.77;;;9.47;;
23072;SDS011;67971;51.046;3.732;2023-07-31T04:31:12;32.17;;;9.48;;
23072;SDS011;67971;51.046;3.732;2023-07-31T04:33:38;20.20;;;8.27;;
23072;SDS011;67971;51.046;3.732;2023-07-31T04:36:04;19.77;;;7.80;;
23072;SDS011;67971;51.046;3.732;2023-07-31T04:38:30;15.13;;;7.60;;
23072;SDS011;67971;51.046;3.732;2023-07-31T04:40:56;24.70;;;7.70;;
23072;SDS011;67971;51.046;3.732;2023-07-31T04:43:21;16.47;;;7.57;;
23072;SDS011;67971;51.046;3.732;2023-07-31T04:45:47;19.60;;;7.38;;
23072;SDS011;67971;51.046;3.732;2023-07-31T04:48:13;21.30;;;8.15;;
23072;SDS011;67971;51.046;3.732;2023-07-31T04:50:39;19.95;;;7.28;;
23072;SDS011;67971;51.046;3.732;2023-07-31T04:53:05;12.82;;;7.88;;
23072;SDS011;67971;51.046;3.732;2023-07-31T04:55:31;18.23;;;7.47;;
23072;SDS011;67971;51.046;3.732;2023-07-31T04:57:57;14.30;;;6.53;;
23072;SDS011;67971;51.046;3.732;2023-07-31T05:00:24;21.38;;;8.00;;
23072;SDS011;67971;51.046;3.732;2023-07-31T05:02:49;15.20;;;6.37;;
23072;SDS011;67971;51.046;3.732;2023-07-31T05:05:15;12.20;;;7.03;;
23072;SDS011;67971;51.046;3.732;2023-07-31T05:07:41;16.10;;;7.10;;
23072;SDS011;67971;51.046;3.732;2023-07-31T05:10:06;14.43;;;6.68;;
23072;SDS011;67971;51.046;3.732;2023-07-31T05:12:32;19.40;;;7.37;;
23072;SDS011;67971;51.046;3.732;2023-07-31T05:14:58;17.58;;;7.13;;
23072;SDS011;67971;51.046;3.732;2023-07-31T05:17:23;14.02;;;7.13;;
23072;SDS011;67971;51.046;3.732;2023-07-31T05:19:49;16.48;;;7.20;;
23072;SDS011;67971;51.046;3.732;2023-07-31T05:22:15;13.53;;;7.43;;
23072;SDS011;67971;51.046;3.732;2023-07-31T05:24:40;12.20;;;7.27;;
23072;SDS011;67971;51.046;3.732;2023-07-31T05:27:06;17.73;;;7.27;;
23072;SDS011;67971;51.046;3.732;2023-07-31T05:29:32;13.90;;;7.83;;
23072;SDS011;67971;51.046;3.732;2023-07-31T05:31:57;17.90;;;8.20;;
23072;SDS011;67971;51.046;3.732;2023-07-31T05:34:23;19.87;;;7.83;;
23072;SDS011;67971;51.046;3.732;2023-07-31T05:36:48;15.57;;;8.18;;
23072;SDS011;67971;51.046;3.732;2023-07-31T05:39:14;16.07;;;8.20;;
23072;SDS011;67971;51.046;3.732;2023-07-31T05:41:40;14.90;;;8.13;;
23072;SDS011;67971;51.046;3.732;2023-07-31T05:44:05;15.87;;;7.17;;
23072;SDS011;67971;51.046;3.732;2023-07-31T05:46:31;19.93;;;7.50;;
23072;SDS011;67971;51.046;3.732;2023-07-31T05:48:57;19.08;;;7.90;;
23072;SDS011;67971;51.046;3.732;2023-07-31T05:51:24;14.57;;;6.72;;
23072;SDS011;67971;51.046;3.732;2023-07-31T05:53:50;13.43;;;7.10;;
23072;SDS011;67971;51.046;3.732;2023-07-31T05:56:16;18.45;;;7.35;;
23072;SDS011;67971;51.046;3.732;2023-07-31T05:58:41;17.55;;;7.78;;
23072;SDS011;67971;51.046;3.732;2023-07-31T06:01:07;17.42;;;7.75;;
23072;SDS011;67971;51.046;3.732;2023-07-31T06:03:32;12.85;;;6.47;;
23072;SDS011;67971;51.046;3.732;2023-07-31T06:05:58;14.60;;;7.30;;
23072;SDS011;67971;51.046;3.732;2023-07-31T06:08:24;16.93;;;7.07;;
23072;SDS011;67971;51.046;3.732;2023-07-31T06:10:49;14.87;;;7.07;;
23072;SDS011;67971;51.046;3.732;2023-07-31T06:13:15;14.75;;;7.13;;
23072;SDS011;67971;51.046;3.732;2023-07-31T06:15:40;17.50;;;7.47;;
23072;SDS011;67971;51.046;3.732;2023-07-31T06:18:06;17.20;;;7.07;;
23072;SDS011;67971;51.046;3.732;2023-07-31T06:20:33;14.82;;;7.20;;
23072;SDS011;67971;51.046;3.732;2023-07-31T06:22:59;14.95;;;6.63;;
23072;SDS011;67971;51.046;3.732;2023-07-31T06:25:24;16.80;;;7.17;;
23072;SDS011;67971;51.046;3.732;2023-07-31T06:27:50;15.68;;;7.00;;
23072;SDS011;67971;51.046;3.732;2023-07-31T06:30:16;16.65;;;6.88;;
23072;SDS011;67971;51.046;3.732;2023-07-31T06:32:42;13.65;;;7.07;;
23072;SDS011;67971;51.046;3.732;2023-07-31T06:35:08;18.95;;;7.22;;
23072;SDS011;67971;51.046;3.732;2023-07-31T06:37:33;19.00;;;7.80;;
23072;SDS011;67971;51.046;3.732;2023-07-31T06:39:59;21.73;;;7.17;;
23072;SDS011;67971;51.046;3.732;2023-07-31T06:42:25;20.90;;;6.53;;
23072;SDS011;67971;51.046;3.732;2023-07-31T06:44:50;12.35;;;6.93;;
23072;SDS011;67971;51.046;3.732;2023-07-31T06:47:16;14.75;;;5.97;;
23072;SDS011;67971;51.046;3.732;2023-07-31T06:49:42;13.82;;;6.28;;
23072;SDS011;67971;51.046;3.732;2023-07-31T06:52:07;15.85;;;6.38;;
23072;SDS011;67971;51.046;3.732;2023-07-31T06:54:33;14.18;;;6.22;;
23072;SDS011;67971;51.046;3.732;2023-07-31T06:56:58;30.65;;;6.53;;
23072;SDS011;67971;51.046;3.732;2023-07-31T06:59:24;13.63;;;5.23;;
23072;SDS011;67971;51.046;3.732;2023-07-31T07:01:49;14.90;;;6.20;;
23072;SDS011;67971;51.046;3.732;2023-07-31T07:04:15;11.18;;;5.65;;
23072;SDS011;67971;51.046;3.732;2023-07-31T07:06:41;13.48;;;5.70;;
23072;SDS011;67971;51.046;3.732;2023-07-31T07:09:07;13.32;;;6.32;;
23072;SDS011;67971;51.046;3.732;2023-07-31T07:11:33;12.98;;;6.50;;
23072;SDS011;67971;51.046;3.732;2023-07-31T07:13:59;20.00;;;6.65;;
23072;SDS011;67971;51.046;3.732;2023-07-31T07:16:25;14.05;;;6.13;;
23072;SDS011;67971;51.046;3.732;2023-07-31T07:18:53;13.32;;;5.95;;
23072;SDS011;67971;51.046;3.732;2023-07-31T07:21:18;13.63;;;5.75;;
23072;SDS011;67971;51.046;3.732;2023-07-31T07:23:44;10.85;;;5.28;;
23072;SDS011;67971;51.046;3.732;2023-07-31T07:26:10;12.35;;;5.93;;
23072;SDS011;67971;51.046;3.732;2023-07-31T07:28:35;11.82;;;5.25;;
23072;SDS011;67971;51.046;3.732;2023-07-31T07:31:02;12.35;;;4.85;;
23072;SDS011;67971;51.046;3.732;2023-07-31T07:33:28;17.77;;;5.95;;
23072;SDS011;67971;51.046;3.732;2023-07-31T07:35:54;10.80;;;5.50;;
23072;SDS011;67971;51.046;3.732;2023-07-31T07:38:19;7.97;;;4.95;;
23072;SDS011;67971;51.046;3.732;2023-07-31T07:40:45;14.02;;;4.85;;
23072;SDS011;67971;51.046;3.732;2023-07-31T07:43:15;13.70;;;5.03;;
23072;SDS011;67971;51.046;3.732;2023-07-31T07:45:41;7.88;;;4.78;;
23072;SDS011;67971;51.046;3.732;2023-07-31T07:48:06;8.38;;;4.57;;
23072;SDS011;67971;51.046;3.732;2023-07-31T07:50:32;12.43;;;5.15;;
23072;SDS011;67971;51.046;3.732;2023-07-31T07:52:58;11.85;;;4.40;;
23072;SDS011;67971;51.046;3.732;2023-07-31T07:55:23;8.65;;;4.05;;
23072;SDS011;67971;51.046;3.732;2023-07-31T07:57:49;12.63;;;4.25;;
23072;SDS011;67971;51.046;3.732;2023-07-31T08:00:15;8.60;;;4.32;;
23072;SDS011;67971;51.046;3.732;2023-07-31T08:02:42;14.02;;;5.03;;
23072;SDS011;67971;51.046;3.732;2023-07-31T08:05:08;14.50;;;4.63;;
23072;SDS011;67971;51.046;3.732;2023-07-31T08:07:34;8.68;;;4.22;;
23072;SDS011;67971;51.046;3.732;2023-07-31T08:09:59;8.55;;;3.95;;
23072;SDS011;67971;51.046;3.732;2023-07-31T08:12:25;4.53;;;3.40;;
23072;SDS011;67971;51.046;3.732;2023-07-31T08:14:51;7.32;;;4.00;;
23072;SDS011;67971;51.046;3.732;2023-07-31T08:17:17;6.97;;;3.67;;
23072;SDS011;67971;51.046;3.732;2023-07-31T08:19:42;5.65;;;3.42;;
23072;SDS011;67971;51.046;3.732;2023-07-31T08:22:09;5.60;;;2.97;;
23072;SDS011;67971;51.046;3.732;2023-07-31T08:24:34;6.50;;;3.28;;
23072;SDS011;67971;51.046;3.732;2023-07-31T08:27:00;6.57;;;3.03;;
23072;SDS011;67971;51.046;3.732;2023-07-31T08:29:25;7.10;;;3.03;;
23072;SDS011;67971;51.046;3.732;2023-07-31T08:31:51;10.38;;;3.42;;
23072;SDS011;67971;51.046;3.732;2023-07-31T08:34:17;10.70;;;3.70;;
23072;SDS011;67971;51.046;3.732;2023-07-31T08:36:42;5.63;;;2.85;;
23072;SDS011;67971;51.046;3.732;2023-07-31T08:39:08;6.70;;;3.35;;
23072;SDS011;67971;51.046;3.732;2023-07-31T08:41:37;5.80;;;3.05;;
23072;SDS011;67971;51.046;3.732;2023-07-31T08:44:04;5.72;;;2.53;;
23072;SDS011;67971;51.046;3.732;2023-07-31T08:46:30;5.68;;;2.88;;
23072;SDS011;67971;51.046;3.732;2023-07-31T08:48:58;5.35;;;3.05;;
23072;SDS011;67971;51.046;3.732;2023-07-31T08:51:24;6.70;;;3.15;;
23072;SDS011;67971;51.046;3.732;2023-07-31T08:53:50;5.00;;;2.97;;
23072;SDS011;67971;51.046;3.732;2023-07-31T08:56:18;8.13;;;3.50;;
23072;SDS011;67971;51.046;3.732;2023-07-31T08:58:44;7.75;;;3.72;;
23072;SDS011;67971;51.046;3.732;2023-07-31T09:01:11;6.13;;;2.75;;
23072;SDS011;67971;51.046;3.732;2023-07-31T09:03:37;4.78;;;2.80;;
23072;SDS011;67971;51.046;3.732;2023-07-31T09:06:05;4.55;;;2.65;;
23072;SDS011;67971;51.046;3.732;2023-07-31T09:08:32;4.03;;;3.22;;
23072;SDS011;67971;51.046;3.732;2023-07-31T09:11:01;6.72;;;3.38;;
23072;SDS011;67971;51.046;3.732;2023-07-31T09:13:31;6.50;;;2.97;;
23072;SDS011;67971;51.046;3.732;2023-07-31T09:15:57;5.78;;;3.13;;
23072;SDS011;67971;51.046;3.732;2023-07-31T09:18:23;6.78;;;3.15;;
23072;SDS011;67971;51.046;3.732;2023-07-31T09:21:04;6.80;;;3.25;;
23072;SDS011;67971;51.046;3.732;2023-07-31T09:23:41;6.35;;;3.63;;
23072;SDS011;67971;51.046;3.732;2023-07-31T09:26:10;6.55;;;3.75;;
23072;SDS011;67971;51.046;3.732;2023-07-31T09:28:44;4.65;;;3.25;;
23072;SDS011;67971;51.046;3.732;2023-07-31T09:31:09;7.90;;;3.78;;
23072;SDS011;67971;51.046;3.732;2023-07-31T09:33:35;5.85;;;3.78;;
23072;SDS011;67971;51.046;3.732;2023-07-31T09:36:20;5.82;;;4.15;;
23072;SDS011;67971;51.046;3.732;2023-07-31T09:38:45;6.57;;;4.05;;
23072;SDS011;67971;51.046;3.732;2023-07-31T09:41:11;5.25;;;3.80;;
23072;SDS011;67971;51.046;3.732;2023-07-31T09:43:38;6.72;;;4.38;;
23072;SDS011;67971;51.046;3.732;2023-07-31T09:46:03;6.32;;;4.15;;
23072;SDS011;67971;51.046;3.732;2023-07-31T09:48:38;10.95;;;4.20;;
23072;SDS011;67971;51.046;3.732;2023-07-31T09:51:04;5.03;;;3.78;;
23072;SDS011;67971;51.046;3.732;2023-07-31T09:53:30;7.35;;;4.38;;
23072;SDS011;67971;51.046;3.732;2023-07-31T09:55:57;8.23;;;4.30;;
23072;SDS011;67971;51.046;3.732;2023-07-31T09:58:23;8.60;;;4.15;;
23072;SDS011;67971;51.046;3.732;2023-07-31T10:00:52;6.85;;;4.50;;
23072;SDS011;67971;51.046;3.732;2023-07-31T10:03:18;9.05;;;4.70;;
23072;SDS011;67971;51.046;3.732;2023-07-31T10:05:45;9.75;;;4.72;;
23072;SDS011;67971;51.046;3.732;2023-07-31T10:08:15;9.23;;;5.05;;
23072;SDS011;67971;51.046;3.732;2023-07-31T10:10:43;11.65;;;4.82;;
23072;SDS011;67971;51.046;3.732;2023-07-31T10:13:09;9.27;;;4.72;;
23072;SDS011;67971;51.046;3.732;2023-07-31T10:15:36;10.30;;;4.63;;
23072;SDS011;67971;51.046;3.732;2023-07-31T10:18:02;8.93;;;4.40;;
23072;SDS011;67971;51.046;3.732;2023-07-31T10:20:30;8.05;;;4.50;;
23072;SDS011;67971;51.046;3.732;2023-07-31T10:22:57;9.20;;;4.53;;
23072;SDS011;67971;51.046;3.732;2023-07-31T10:25:24;7.20;;;4.70;;
23072;SDS011;67971;51.046;3.732;2023-07-31T10:27:52;9.13;;;4.70;;
23072;SDS011;67971;51.046;3.732;2023-07-31T10:30:20;11.48;;;4.85;;
23072;SDS011;67971;51.046;3.732;2023-07-31T10:32:49;10.35;;;5.28;;
23072;SDS011;67971;51.046;3.732;2023-07-31T10:35:18;9.63;;;5.63;;
23072;SDS011;67971;51.046;3.732;2023-07-31T10:37:44;9.95;;;5.20;;
23072;SDS011;67971;51.046;3.732;2023-07-31T10:42:37;11.00;;;5.72;;
23072;SDS011;67971;51.046;3.732;2023-07-31T10:45:10;9.52;;;5.45;;
23072;SDS011;67971;51.046;3.732;2023-07-31T10:47:42;14.38;;;5.55;;
23072;SDS011;67971;51.046;3.732;2023-07-31T10:50:13;11.32;;;5.68;;
23072;SDS011;67971;51.046;3.732;2023-07-31T10:52:38;12.07;;;5.45;;
23072;SDS011;67971;51.046;3.732;2023-07-31T10:57:49;10.55;;;5.25;;
23072;SDS011;67971;51.046;3.732;2023-07-31T11:00:28;18.92;;;5.82;;
23072;SDS011;67971;51.046;3.732;2023-07-31T11:03:13;10.13;;;5.40;;
23072;SDS011;67971;51.046;3.732;2023-07-31T11:08:31;7.40;;;5.25;;
23072;SDS011;67971;51.046;3.732;2023-07-31T11:13:46;7.97;;;4.82;;
23072;SDS011;67971;51.046;3.732;2023-07-31T11:16:19;8.23;;;4.45;;
23072;SDS011;67971;51.046;3.732;2023-07-31T11:18:47;7.03;;;4.53;;
23072;SDS011;67971;51.046;3.732;2023-07-31T11:21:14;8.57;;;4.50;;
23072;SDS011;67971;51.046;3.732;2023-07-31T11:23:45;9.15;;;4.40;;
23072;SDS011;67971;51.046;3.732;2023-07-31T11:26:11;11.57;;;4.82;;
23072;SDS011;67971;51.046;3.732;2023-07-31T11:28:37;7.50;;;4.15;;
23072;SDS011;67971;51.046;3.732;2023-07-31T11:31:03;7.30;;;4.50;;
23072;SDS011;67971;51.046;3.732;2023-07-31T11:33:29;8.70;;;4.38;;
23072;SDS011;67971;51.046;3.732;2023-07-31T11:35:55;6.78;;;4.15;;
23072;SDS011;67971;51.046;3.732;2023-07-31T11:40:51;8.75;;;4.22;;
23072;SDS011;67971;51.046;3.732;2023-07-31T11:43:17;5.75;;;3.97;;
23072;SDS011;67971;51.046;3.732;2023-07-31T11:45:51;11.25;;;3.97;;
23072;SDS011;67971;51.046;3.732;2023-07-31T11:50:53;8.45;;;4.10;;
23072;SDS011;67971;51.046;3.732;2023-07-31T11:56:05;8.30;;;5.28;;
23072;SDS011;67971;51.046;3.732;2023-07-31T11:58:35;8.15;;;4.63;;
23072;SDS011;67971;51.046;3.732;2023-07-31T12:01:02;9.23;;;5.43;;
23072;SDS011;67971;51.046;3.732;2023-07-31T12:03:28;7.32;;;4.45;;
23072;SDS011;67971;51.046;3.732;2023-07-31T12:05:54;9.07;;;5.45;;
23072;SDS011;67971;51.046;3.732;2023-07-31T12:08:20;9.23;;;5.93;;
23072;SDS011;67971;51.046;3.732;2023-07-31T12:10:49;10.50;;;5.53;;
23072;SDS011;67971;51.046;3.732;2023-07-31T12:13:22;10.80;;;5.53;;
23072;SDS011;67971;51.046;3.732;2023-07-31T12:15:58;10.07;;;5.22;;
23072;SDS011;67971;51.046;3.732;2023-07-31T12:18:26;11.35;;;5.28;;
23072;SDS011;67971;51.046;3.732;2023-07-31T12:20:59;14.85;;;5.70;;
23072;SDS011;67971;51.046;3.732;2023-07-31T12:23:27;11.60;;;5.97;;
23072;SDS011;67971;51.046;3.732;2023-07-31T12:26:04;9.68;;;5.82;;
23072;SDS011;67971;51.046;3.732;2023-07-31T12:28:41;11.10;;;6.00;;
23072;SDS011;67971;51.046;3.732;2023-07-31T12:31:11;12.20;;;7.07;;
23072;SDS011;67971;51.046;3.732;2023-07-31T12:33:38;13.43;;;7.25;;
23072;SDS011;67971;51.046;3.732;2023-07-31T12:36:07;13.45;;;7.47;;
23072;SDS011;67971;51.046;3.732;2023-07-31T12:38:35;14.32;;;8.30;;
23072;SDS011;67971;51.046;3.732;2023-07-31T12:41:01;17.20;;;9.30;;
23072;SDS011;67971;51.046;3.732;2023-07-31T12:43:26;18.65;;;10.10;;
23072;SDS011;67971;51.046;3.732;2023-07-31T12:45:53;16.98;;;9.38;;
23072;SDS011;67971;51.046;3.732;2023-07-31T12:48:21;17.33;;;9.35;;
23072;SDS011;67971;51.046;3.732;2023-07-31T12:50:47;18.92;;;9.73;;
23072;SDS011;67971;51.046;3.732;2023-07-31T12:53:12;15.13;;;9.15;;
23072;SDS011;67971;51.046;3.732;2023-07-31T12:55:40;13.18;;;8.98;;
23072;SDS011;67971;51.046;3.732;2023-07-31T12:58:06;11.18;;;7.90;;
23072;SDS011;67971;51.046;3.732;2023-07-31T13:00:31;11.82;;;7.55;;
23072;SDS011;67971;51.046;3.732;2023-07-31T13:02:57;12.82;;;7.60;;
23072;SDS011;67971;51.046;3.732;2023-07-31T13:05:23;10.23;;;6.88;;
23072;SDS011;67971;51.046;3.732;2023-07-31T13:07:48;10.68;;;6.45;;
23072;SDS011;67971;51.046;3.732;2023-07-31T13:10:14;14.02;;;6.50;;
23072;SDS011;67971;51.046;3.732;2023-07-31T13:12:40;11.80;;;5.47;;
23072;SDS011;67971;51.046;3.732;2023-07-31T13:15:06;8.30;;;5.63;;
23072;SDS011;67971;51.046;3.732;2023-07-31T13:17:32;10.38;;;5.95;;
23072;SDS011;67971;51.046;3.732;2023-07-31T13:19:58;8.18;;;4.80;;
23072;SDS011;67971;51.046;3.732;2023-07-31T13:22:24;8.68;;;5.03;;
23072;SDS011;67971;51.046;3.732;2023-07-31T13:24:50;10.23;;;5.13;;
23072;SDS011;67971;51.046;3.732;2023-07-31T13:27:16;12.38;;;4.88;;
23072;SDS011;67971;51.046;3.732;2023-07-31T13:29:44;7.13;;;4.72;;
23072;SDS011;67971;51.046;3.732;2023-07-31T13:32:16;7.15;;;3.85;;
23072;SDS011;67971;51.046;3.732;2023-07-31T13:34:43;7.40;;;4.70;;
23072;SDS011;67971;51.046;3.732;2023-07-31T13:37:09;8.18;;;4.93;;
23072;SDS011;67971;51.046;3.732;2023-07-31T13:39:35;10.65;;;4.30;;
23072;SDS011;67971;51.046;3.732;2023-07-31T13:42:02;7.57;;;4.28;;
23072;SDS011;67971;51.046;3.732;2023-07-31T13:44:28;5.57;;;3.53;;
23072;SDS011;67971;51.046;3.732;2023-07-31T13:46:53;6.85;;;3.85;;
23072;SDS011;67971;51.046;3.732;2023-07-31T13:49:19;6.55;;;3.70;;
23072;SDS011;67971;51.046;3.732;2023-07-31T13:51:45;9.20;;;3.88;;
23072;SDS011;67971;51.046;3.732;2023-07-31T13:54:11;6.10;;;4.10;;
23072;SDS011;67971;51.046;3.732;2023-07-31T13:56:37;6.63;;;4.45;;
23072;SDS011;67971;51.046;3.732;2023-07-31T13:59:03;7.22;;;4.18;;
23072;SDS011;67971;51.046;3.732;2023-07-31T14:01:29;9.15;;;5.10;;
23072;SDS011;67971;51.046;3.732;2023-07-31T14:03:55;10.00;;;5.03;;
23072;SDS011;67971;51.046;3.732;2023-07-31T14:06:20;8.88;;;5.38;;
23072;SDS011;67971;51.046;3.732;2023-07-31T14:08:46;18.00;;;6.55;;
23072;SDS011;67971;51.046;3.732;2023-07-31T14:11:12;12.50;;;6.50;;
23072;SDS011;67971;51.046;3.732;2023-07-31T14:13:37;11.85;;;6.30;;
23072;SDS011;67971;51.046;3.732;2023-07-31T14:16:03;12.80;;;7.13;;
23072;SDS011;67971;51.046;3.732;2023-07-31T14:18:29;13.27;;;6.70;;
23072;SDS011;67971;51.046;3.732;2023-07-31T14:20:54;14.90;;;7.13;;
23072;SDS011;67971;51.046;3.732;2023-07-31T14:23:20;12.95;;;6.53;;
23072;SDS011;67971;51.046;3.732;2023-07-31T14:25:46;15.30;;;7.40;;
23072;SDS011;67971;51.046;3.732;2023-07-31T14:28:12;14.15;;;6.07;;
23072;SDS011;67971;51.046;3.732;2023-07-31T14:30:38;11.77;;;5.85;;
23072;SDS011;67971;51.046;3.732;2023-07-31T14:33:03;14.35;;;6.82;;
23072;SDS011;67971;51.046;3.732;2023-07-31T14:35:30;11.82;;;6.15;;
23072;SDS011;67971;51.046;3.732;2023-07-31T14:37:55;14.25;;;6.70;;
23072;SDS011;67971;51.046;3.732;2023-07-31T14:40:21;12.07;;;6.88;;
23072;SDS011;67971;51.046;3.732;2023-07-31T14:42:47;17.17;;;6.70;;
23072;SDS011;67971;51.046;3.732;2023-07-31T14:45:12;13.10;;;6.30;;
23072;SDS011;67971;51.046;3.732;2023-07-31T14:47:38;15.63;;;6.35;;
23072;SDS011;67971;51.046;3.732;2023-07-31T14:50:04;10.98;;;5.78;;
23072;SDS011;67971;51.046;3.732;2023-07-31T14:52:30;10.02;;;6.63;;
23072;SDS011;67971;51.046;3.732;2023-07-31T14:54:55;11.45;;;5.93;;
23072;SDS011;67971;51.046;3.732;2023-07-31T14:57:21;13.57;;;5.63;;
23072;SDS011;67971;51.046;3.732;2023-07-31T14:59:47;10.00;;;5.20;;